sensor_id;sensor_type;location;lat;lon;timestamp;temperature;humidity
8684;DHT22;4379;59.744;18.206;2023-07-29T00:00:17;9.60;99.90
8684;DHT22;4379;59.744;18.206;2023-07-29T00:02:45;9.60;99.90
8684;DHT22;4379;59.744;18.206;2023-07-29T00:05:12;9.60;99.90
8684;DHT22;4379;59.744;18.206;2023-07-29T00:07:40;9.60;99.90
8684;DHT22;4379;59.744;18.206;2023-07-29T00:10:07;9.50;99.90
8684;DHT22;4379;59.744;18.206;2023-07-29T00:12:35;9.50;99.90
8684;DHT22;4379;59.744;18.206;2023-07-29T00:15:02;9.50;99.90
8684;DHT22;4379;59.744;18.206;2023-07-29T00:17:29;9.50;99.90
8684;DHT22;4379;59.744;18.206;2023-07-29T00:19:56;9.50;99.90
8684;DHT22;4379;59.744;18.206;2023-07-29T00:22:23;9.40;99.90
8684;DHT22;4379;59.744;18.206;2023-07-29T00:24:52;9.40;99.90
8684;DHT22;4379;59.744;18.206;2023-07-29T00:27:21;9.40;99.90
8684;DHT22;4379;59.744;18.206;2023-07-29T00:29:49;9.40;99.90
8684;DHT22;4379;59.744;18.206;2023-07-29T00:32:16;9.40;99.90
8684;DHT22;4379;59.744;18.206;2023-07-29T00:34:43;9.40;99.90
8684;DHT22;4379;59.744;18.206;2023-07-29T00:37:11;9.30;99.90
8684;DHT22;4379;59.744;18.206;2023-07-29T00:39:39;9.30;99.90
8684;DHT22;4379;59.744;18.206;2023-07-29T00:42:06;9.30;99.90
8684;DHT22;4379;59.744;18.206;2023-07-29T00:44:33;9.40;99.90
8684;DHT22;4379;59.744;18.206;2023-07-29T00:47:02;9.40;99.90
8684;DHT22;4379;59.744;18.206;2023-07-29T00:49:31;9.30;99.90
8684;DHT22;4379;59.744;18.206;2023-07-29T00:51:59;9.40;99.90
8684;DHT22;4379;59.744;18.206;2023-07-29T00:54:26;9.40;99.90
8684;DHT22;4379;59.744;18.206;2023-07-29T00:56:54;9.40;99.90
8684;DHT22;4379;59.744;18.206;2023-07-29T00:59:21;9.40;99.90
8684;DHT22;4379;59.744;18.206;2023-07-29T01:01:49;9.40;99.90
8684;DHT22;4379;59.744;18.206;2023-07-29T01:04:16;9.40;99.90
8684;DHT22;4379;59.744;18.206;2023-07-29T01:09:56;9.40;99.90
8684;DHT22;4379;59.744;18.206;2023-07-29T01:15:21;9.40;99.90
8684;DHT22;4379;59.744;18.206;2023-07-29T01:17:52;9.40;99.90
8684;DHT22;4379;59.744;18.206;2023-07-29T01:20:24;9.40;99.90
8684;DHT22;4379;59.744;18.206;2023-07-29T01:22:52;9.40;99.90
8684;DHT22;4379;59.744;18.206;2023-07-29T01:25:19;9.40;99.90
8684;DHT22;4379;59.744;18.206;2023-07-29T01:27:48;9.40;99.90
8684;DHT22;4379;59.744;18.206;2023-07-29T01:30:15;9.40;99.90
8684;DHT22;4379;59.744;18.206;2023-07-29T01:33:32;9.40;99.90
8684;DHT22;4379;59.744;18.206;2023-07-29T01:36:15;9.30;99.90
8684;DHT22;4379;59.744;18.206;2023-07-29T01:38:44;9.30;99.90
8684;DHT22;4379;59.744;18.206;2023-07-29T01:41:13;9.30;99.90
8684;DHT22;4379;59.744;18.206;2023-07-29T01:43:41;9.30;99.90
8684;DHT22;4379;59.744;18.206;2023-07-29T01:46:11;9.30;99.90
8684;DHT22;4379;59.744;18.206;2023-07-29T01:48:39;9.30;99.90
8684;DHT22;4379;59.744;18.206;2023-07-29T01:51:07;9.30;99.90
8684;DHT22;4379;59.744;18.206;2023-07-29T01:53:35;9.40;99.90
8684;DHT22;4379;59.744;18.206;2023-07-29T01:56:02;9.40;99.90
8684;DHT22;4379;59.744;18.206;2023-07-29T01:58:29;9.40;99.90
8684;DHT22;4379;59.744;18.206;2023-07-29T02:00:56;9.40;99.90
8684;DHT22;4379;59.744;18.206;2023-07-29T02:03:24;9.30;99.90
8684;DHT22;4379;59.744;18.206;2023-07-29T02:05:51;9.30;99.90
8684;DHT22;4379;59.744;18.206;2023-07-29T02:08:18;9.40;99.90
8684;DHT22;4379;59.744;18.206;2023-07-29T02:10:45;9.40;99.90
8684;DHT22;4379;59.744;18.206;2023-07-29T02:13:14;9.40;99.90
8684;DHT22;4379;59.744;18.206;2023-07-29T02:15:41;9.40;99.90
8684;DHT22;4379;59.744;18.206;2023-07-29T02:18:09;9.40;99.90
8684;DHT22;4379;59.744;18.206;2023-07-29T02:20:36;9.50;99.90
8684;DHT22;4379;59.744;18.206;2023-07-29T02:23:03;9.60;99.90
8684;DHT22;4379;59.744;18.206;2023-07-29T02:25:31;9.70;99.90
8684;DHT22;4379;59.744;18.206;2023-07-29T02:28:01;9.70;99.90
8684;DHT22;4379;59.744;18.206;2023-07-29T02:30:30;9.80;99.90
8684;DHT22;4379;59.744;18.206;2023-07-29T02:32:58;9.80;99.90
8684;DHT22;4379;59.744;18.206;2023-07-29T02:35:27;9.80;99.90
8684;DHT22;4379;59.744;18.206;2023-07-29T02:37:54;9.80;99.90
8684;DHT22;4379;59.744;18.206;2023-07-29T02:40:21;9.80;99.90
8684;DHT22;4379;59.744;18.206;2023-07-29T02:42:49;9.90;99.90
8684;DHT22;4379;59.744;18.206;2023-07-29T02:45:17;9.80;99.90
8684;DHT22;4379;59.744;18.206;2023-07-29T02:47:44;9.90;99.90
8684;DHT22;4379;59.744;18.206;2023-07-29T02:50:11;9.90;99.90
8684;DHT22;4379;59.744;18.206;2023-07-29T02:52:38;9.90;99.90
8684;DHT22;4379;59.744;18.206;2023-07-29T02:55:06;9.90;99.90
8684;DHT22;4379;59.744;18.206;2023-07-29T02:57:33;9.90;99.90
8684;DHT22;4379;59.744;18.206;2023-07-29T03:00:00;9.90;99.90
8684;DHT22;4379;59.744;18.206;2023-07-29T03:02:28;10.00;99.90
8684;DHT22;4379;59.744;18.206;2023-07-29T03:04:55;10.00;99.90
8684;DHT22;4379;59.744;18.206;2023-07-29T03:07:22;10.00;99.90
8684;DHT22;4379;59.744;18.206;2023-07-29T03:09:49;10.10;99.90
8684;DHT22;4379;59.744;18.206;2023-07-29T03:12:17;10.10;99.90
8684;DHT22;4379;59.744;18.206;2023-07-29T03:14:47;10.20;99.90
8684;DHT22;4379;59.744;18.206;2023-07-29T03:17:15;10.20;99.90
8684;DHT22;4379;59.744;18.206;2023-07-29T03:19:42;10.30;99.90
8684;DHT22;4379;59.744;18.206;2023-07-29T03:22:09;10.30;99.90
8684;DHT22;4379;59.744;18.206;2023-07-29T03:24:37;10.40;99.90
8684;DHT22;4379;59.744;18.206;2023-07-29T03:27:04;10.30;99.90
8684;DHT22;4379;59.744;18.206;2023-07-29T03:29:32;10.30;99.90
8684;DHT22;4379;59.744;18.206;2023-07-29T03:31:59;10.30;99.90
8684;DHT22;4379;59.744;18.206;2023-07-29T03:34:26;10.30;99.90
8684;DHT22;4379;59.744;18.206;2023-07-29T03:36:53;10.40;99.90
8684;DHT22;4379;59.744;18.206;2023-07-29T03:39:21;10.40;99.90
8684;DHT22;4379;59.744;18.206;2023-07-29T03:41:48;10.50;99.90
8684;DHT22;4379;59.744;18.206;2023-07-29T03:44:16;10.50;99.90
8684;DHT22;4379;59.744;18.206;2023-07-29T03:46:47;10.50;99.90
8684;DHT22;4379;59.744;18.206;2023-07-29T03:49:14;10.60;99.90
8684;DHT22;4379;59.744;18.206;2023-07-29T03:51:41;10.60;99.90
8684;DHT22;4379;59.744;18.206;2023-07-29T03:54:08;10.60;99.90
8684;DHT22;4379;59.744;18.206;2023-07-29T03:56:36;10.70;99.90
8684;DHT22;4379;59.744;18.206;2023-07-29T03:59:05;10.70;99.90
8684;DHT22;4379;59.744;18.206;2023-07-29T04:01:32;10.80;99.90
8684;DHT22;4379;59.744;18.206;2023-07-29T04:04:00;10.90;99.90
8684;DHT22;4379;59.744;18.206;2023-07-29T04:06:27;10.90;99.90
8684;DHT22;4379;59.744;18.206;2023-07-29T04:08:54;10.90;99.90
8684;DHT22;4379;59.744;18.206;2023-07-29T04:11:23;11.00;99.90
8684;DHT22;4379;59.744;18.206;2023-07-29T04:13:50;11.10;99.90
8684;DHT22;4379;59.744;18.206;2023-07-29T04:16:17;11.20;99.90
8684;DHT22;4379;59.744;18.206;2023-07-29T04:18:45;11.30;99.90
8684;DHT22;4379;59.744;18.206;2023-07-29T04:21:12;11.50;99.90
8684;DHT22;4379;59.744;18.206;2023-07-29T04:23:39;11.70;99.90
8684;DHT22;4379;59.744;18.206;2023-07-29T04:26:07;11.70;99.90
8684;DHT22;4379;59.744;18.206;2023-07-29T04:28:34;11.80;99.90
8684;DHT22;4379;59.744;18.206;2023-07-29T04:31:01;11.90;99.90
8684;DHT22;4379;59.744;18.206;2023-07-29T04:33:31;12.10;99.90
8684;DHT22;4379;59.744;18.206;2023-07-29T04:36:03;12.50;99.90
8684;DHT22;4379;59.744;18.206;2023-07-29T04:38:32;12.80;99.90
8684;DHT22;4379;59.744;18.206;2023-07-29T04:41:00;13.10;99.90
8684;DHT22;4379;59.744;18.206;2023-07-29T04:43:31;13.30;99.90
8684;DHT22;4379;59.744;18.206;2023-07-29T04:45:59;13.50;99.90
8684;DHT22;4379;59.744;18.206;2023-07-29T04:48:26;14.50;99.90
8684;DHT22;4379;59.744;18.206;2023-07-29T04:50:53;15.10;99.90
8684;DHT22;4379;59.744;18.206;2023-07-29T04:53:21;15.50;99.90
8684;DHT22;4379;59.744;18.206;2023-07-29T04:55:48;15.80;99.90
8684;DHT22;4379;59.744;18.206;2023-07-29T04:58:15;17.10;99.90
8684;DHT22;4379;59.744;18.206;2023-07-29T05:00:42;17.90;99.90
8684;DHT22;4379;59.744;18.206;2023-07-29T05:03:09;18.30;99.90
8684;DHT22;4379;59.744;18.206;2023-07-29T05:05:36;18.10;99.90
8684;DHT22;4379;59.744;18.206;2023-07-29T05:08:04;17.40;99.90
8684;DHT22;4379;59.744;18.206;2023-07-29T05:10:31;17.00;99.90
8684;DHT22;4379;59.744;18.206;2023-07-29T05:12:58;16.70;99.90
8684;DHT22;4379;59.744;18.206;2023-07-29T05:15:25;16.30;99.90
8684;DHT22;4379;59.744;18.206;2023-07-29T05:17:52;16.00;99.90
8684;DHT22;4379;59.744;18.206;2023-07-29T05:20:20;15.70;99.90
8684;DHT22;4379;59.744;18.206;2023-07-29T05:22:47;15.50;99.90
8684;DHT22;4379;59.744;18.206;2023-07-29T05:25:14;15.60;99.90
8684;DHT22;4379;59.744;18.206;2023-07-29T05:27:41;15.30;99.90
8684;DHT22;4379;59.744;18.206;2023-07-29T05:30:09;15.40;99.90
8684;DHT22;4379;59.744;18.206;2023-07-29T05:32:36;16.60;99.90
8684;DHT22;4379;59.744;18.206;2023-07-29T05:35:04;18.80;99.90
8684;DHT22;4379;59.744;18.206;2023-07-29T05:37:31;21.20;99.90
8684;DHT22;4379;59.744;18.206;2023-07-29T05:39:58;23.20;99.90
8684;DHT22;4379;59.744;18.206;2023-07-29T05:42:26;24.80;99.90
8684;DHT22;4379;59.744;18.206;2023-07-29T05:44:53;26.00;99.90
8684;DHT22;4379;59.744;18.206;2023-07-29T05:47:20;27.30;99.90
8684;DHT22;4379;59.744;18.206;2023-07-29T05:49:47;27.50;99.90
8684;DHT22;4379;59.744;18.206;2023-07-29T05:52:15;27.40;99.90
8684;DHT22;4379;59.744;18.206;2023-07-29T05:54:42;27.90;99.90
8684;DHT22;4379;59.744;18.206;2023-07-29T05:57:11;28.90;99.90
8684;DHT22;4379;59.744;18.206;2023-07-29T05:59:39;29.60;99.90
8684;DHT22;4379;59.744;18.206;2023-07-29T06:02:06;29.20;99.90
8684;DHT22;4379;59.744;18.206;2023-07-29T06:04:34;30.20;99.90
8684;DHT22;4379;59.744;18.206;2023-07-29T06:07:01;31.10;99.90
8684;DHT22;4379;59.744;18.206;2023-07-29T06:09:28;31.60;99.90
8684;DHT22;4379;59.744;18.206;2023-07-29T06:11:56;30.60;99.90
8684;DHT22;4379;59.744;18.206;2023-07-29T06:14:23;31.60;99.90
8684;DHT22;4379;59.744;18.206;2023-07-29T06:16:50;33.00;99.90
8684;DHT22;4379;59.744;18.206;2023-07-29T06:19:19;33.90;99.90
8684;DHT22;4379;59.744;18.206;2023-07-29T06:21:46;33.80;99.90
8684;DHT22;4379;59.744;18.206;2023-07-29T06:24:14;33.80;99.90
8684;DHT22;4379;59.744;18.206;2023-07-29T06:26:41;32.00;99.90
8684;DHT22;4379;59.744;18.206;2023-07-29T06:29:08;32.80;99.90
8684;DHT22;4379;59.744;18.206;2023-07-29T06:31:35;33.00;99.90
8684;DHT22;4379;59.744;18.206;2023-07-29T06:34:03;31.30;99.90
8684;DHT22;4379;59.744;18.206;2023-07-29T06:36:31;31.10;99.90
8684;DHT22;4379;59.744;18.206;2023-07-29T06:38:58;33.00;99.90
8684;DHT22;4379;59.744;18.206;2023-07-29T06:41:26;33.50;99.90
8684;DHT22;4379;59.744;18.206;2023-07-29T06:43:53;33.40;99.90
8684;DHT22;4379;59.744;18.206;2023-07-29T06:46:20;33.10;99.90
8684;DHT22;4379;59.744;18.206;2023-07-29T06:48:47;32.20;99.90
8684;DHT22;4379;59.744;18.206;2023-07-29T06:51:14;34.40;99.90
8684;DHT22;4379;59.744;18.206;2023-07-29T06:53:42;35.90;99.90
8684;DHT22;4379;59.744;18.206;2023-07-29T06:56:10;34.50;99.90
8684;DHT22;4379;59.744;18.206;2023-07-29T06:58:37;32.60;99.90
8684;DHT22;4379;59.744;18.206;2023-07-29T07:01:04;34.30;99.90
8684;DHT22;4379;59.744;18.206;2023-07-29T07:03:32;34.30;99.90
8684;DHT22;4379;59.744;18.206;2023-07-29T07:05:59;33.80;99.90
8684;DHT22;4379;59.744;18.206;2023-07-29T07:08:26;35.00;99.90
8684;DHT22;4379;59.744;18.206;2023-07-29T07:10:54;35.20;99.90
8684;DHT22;4379;59.744;18.206;2023-07-29T07:13:21;35.50;99.90
8684;DHT22;4379;59.744;18.206;2023-07-29T07:15:48;33.50;99.90
8684;DHT22;4379;59.744;18.206;2023-07-29T07:18:16;34.50;99.90
8684;DHT22;4379;59.744;18.206;2023-07-29T07:20:43;35.50;99.90
8684;DHT22;4379;59.744;18.206;2023-07-29T07:23:10;36.30;99.90
8684;DHT22;4379;59.744;18.206;2023-07-29T07:25:40;35.60;99.90
8684;DHT22;4379;59.744;18.206;2023-07-29T07:28:09;36.40;99.90
8684;DHT22;4379;59.744;18.206;2023-07-29T07:30:40;35.80;99.90
8684;DHT22;4379;59.744;18.206;2023-07-29T07:33:10;37.60;99.90
8684;DHT22;4379;59.744;18.206;2023-07-29T07:35:38;36.50;99.90
8684;DHT22;4379;59.744;18.206;2023-07-29T07:38:05;34.90;99.90
8684;DHT22;4379;59.744;18.206;2023-07-29T07:40:34;35.00;99.90
8684;DHT22;4379;59.744;18.206;2023-07-29T07:43:02;37.30;99.90
8684;DHT22;4379;59.744;18.206;2023-07-29T07:45:29;38.50;99.90
8684;DHT22;4379;59.744;18.206;2023-07-29T07:47:56;36.40;99.90
8684;DHT22;4379;59.744;18.206;2023-07-29T07:50:23;36.40;99.90
8684;DHT22;4379;59.744;18.206;2023-07-29T07:52:51;34.40;99.90
8684;DHT22;4379;59.744;18.206;2023-07-29T07:55:18;35.80;99.90
8684;DHT22;4379;59.744;18.206;2023-07-29T07:57:45;35.70;99.90
8684;DHT22;4379;59.744;18.206;2023-07-29T08:00:13;36.80;99.90
8684;DHT22;4379;59.744;18.206;2023-07-29T08:02:44;37.30;99.90
8684;DHT22;4379;59.744;18.206;2023-07-29T08:05:11;35.80;99.90
8684;DHT22;4379;59.744;18.206;2023-07-29T08:07:38;36.80;99.90
8684;DHT22;4379;59.744;18.206;2023-07-29T08:10:06;35.40;99.90
8684;DHT22;4379;59.744;18.206;2023-07-29T08:12:34;35.40;99.90
8684;DHT22;4379;59.744;18.206;2023-07-29T08:15:01;36.40;99.90
8684;DHT22;4379;59.744;18.206;2023-07-29T08:17:29;37.10;99.90
8684;DHT22;4379;59.744;18.206;2023-07-29T08:19:57;36.40;99.90
8684;DHT22;4379;59.744;18.206;2023-07-29T08:22:24;38.10;99.90
8684;DHT22;4379;59.744;18.206;2023-07-29T08:24:51;36.50;99.90
8684;DHT22;4379;59.744;18.206;2023-07-29T08:27:19;36.70;99.90
8684;DHT22;4379;59.744;18.206;2023-07-29T08:29:46;35.10;99.90
8684;DHT22;4379;59.744;18.206;2023-07-29T08:32:14;34.60;99.90
8684;DHT22;4379;59.744;18.206;2023-07-29T08:34:41;35.50;99.90
8684;DHT22;4379;59.744;18.206;2023-07-29T08:37:08;34.10;99.90
8684;DHT22;4379;59.744;18.206;2023-07-29T08:39:35;34.70;99.90
8684;DHT22;4379;59.744;18.206;2023-07-29T08:42:08;34.00;99.90
8684;DHT22;4379;59.744;18.206;2023-07-29T08:44:42;33.60;99.90
8684;DHT22;4379;59.744;18.206;2023-07-29T08:47:11;33.90;99.90
8684;DHT22;4379;59.744;18.206;2023-07-29T08:49:41;34.30;99.90
8684;DHT22;4379;59.744;18.206;2023-07-29T08:52:09;32.90;99.90
8684;DHT22;4379;59.744;18.206;2023-07-29T08:54:37;32.20;99.90
8684;DHT22;4379;59.744;18.206;2023-07-29T08:57:04;31.00;99.90
8684;DHT22;4379;59.744;18.206;2023-07-29T08:59:33;29.90;99.90
8684;DHT22;4379;59.744;18.206;2023-07-29T09:02:01;29.30;99.90
8684;DHT22;4379;59.744;18.206;2023-07-29T09:04:28;28.40;99.90
8684;DHT22;4379;59.744;18.206;2023-07-29T09:06:56;27.30;99.90
8684;DHT22;4379;59.744;18.206;2023-07-29T09:09:25;27.30;99.90
8684;DHT22;4379;59.744;18.206;2023-07-29T09:11:53;26.60;99.90
8684;DHT22;4379;59.744;18.206;2023-07-29T09:14:21;26.70;99.90
8684;DHT22;4379;59.744;18.206;2023-07-29T09:16:48;26.40;99.90
8684;DHT22;4379;59.744;18.206;2023-07-29T09:19:15;26.20;99.90
8684;DHT22;4379;59.744;18.206;2023-07-29T09:21:42;25.90;99.90
8684;DHT22;4379;59.744;18.206;2023-07-29T09:24:17;25.50;99.90
8684;DHT22;4379;59.744;18.206;2023-07-29T09:26:51;25.70;99.90
8684;DHT22;4379;59.744;18.206;2023-07-29T09:29:24;25.80;99.90
8684;DHT22;4379;59.744;18.206;2023-07-29T09:31:54;25.90;99.90
8684;DHT22;4379;59.744;18.206;2023-07-29T09:34:41;25.90;99.90
8684;DHT22;4379;59.744;18.206;2023-07-29T09:37:09;25.80;99.90
8684;DHT22;4379;59.744;18.206;2023-07-29T09:39:36;26.10;99.90
8684;DHT22;4379;59.744;18.206;2023-07-29T09:42:03;25.80;99.90
8684;DHT22;4379;59.744;18.206;2023-07-29T09:44:36;26.00;99.90
8684;DHT22;4379;59.744;18.206;2023-07-29T09:47:03;26.20;99.90
8684;DHT22;4379;59.744;18.206;2023-07-29T09:49:35;26.70;99.90
8684;DHT22;4379;59.744;18.206;2023-07-29T09:52:03;26.50;99.90
8684;DHT22;4379;59.744;18.206;2023-07-29T09:54:32;26.60;99.90
8684;DHT22;4379;59.744;18.206;2023-07-29T09:56:59;26.30;99.90
8684;DHT22;4379;59.744;18.206;2023-07-29T09:59:26;26.60;99.90
8684;DHT22;4379;59.744;18.206;2023-07-29T10:01:54;27.00;99.90
8684;DHT22;4379;59.744;18.206;2023-07-29T10:04:22;26.70;99.90
8684;DHT22;4379;59.744;18.206;2023-07-29T10:06:49;26.80;99.90
8684;DHT22;4379;59.744;18.206;2023-07-29T10:09:17;26.60;99.90
8684;DHT22;4379;59.744;18.206;2023-07-29T10:11:45;26.30;99.90
8684;DHT22;4379;59.744;18.206;2023-07-29T10:14:13;26.70;99.90
8684;DHT22;4379;59.744;18.206;2023-07-29T10:16:40;26.30;99.90
8684;DHT22;4379;59.744;18.206;2023-07-29T10:19:09;26.40;99.90
8684;DHT22;4379;59.744;18.206;2023-07-29T10:21:39;26.40;99.90
8684;DHT22;4379;59.744;18.206;2023-07-29T10:24:15;26.50;99.90
8684;DHT22;4379;59.744;18.206;2023-07-29T10:26:46;26.40;99.90
8684;DHT22;4379;59.744;18.206;2023-07-29T10:29:14;26.10;99.90
8684;DHT22;4379;59.744;18.206;2023-07-29T10:31:46;26.70;99.90
8684;DHT22;4379;59.744;18.206;2023-07-29T10:34:17;26.40;99.90
8684;DHT22;4379;59.744;18.206;2023-07-29T10:36:45;26.60;99.90
8684;DHT22;4379;59.744;18.206;2023-07-29T10:39:13;26.00;99.90
8684;DHT22;4379;59.744;18.206;2023-07-29T10:42:00;25.80;99.90
8684;DHT22;4379;59.744;18.206;2023-07-29T10:47:13;25.30;99.90
8684;DHT22;4379;59.744;18.206;2023-07-29T10:49:41;25.50;99.90
8684;DHT22;4379;59.744;18.206;2023-07-29T10:52:13;25.60;99.90
8684;DHT22;4379;59.744;18.206;2023-07-29T10:54:47;25.50;99.90
8684;DHT22;4379;59.744;18.206;2023-07-29T10:57:24;25.80;99.90
8684;DHT22;4379;59.744;18.206;2023-07-29T10:59:57;26.10;99.90
8684;DHT22;4379;59.744;18.206;2023-07-29T11:02:30;26.10;99.90
8684;DHT22;4379;59.744;18.206;2023-07-29T11:04:58;25.80;99.90
8684;DHT22;4379;59.744;18.206;2023-07-29T11:07:27;26.20;99.90
8684;DHT22;4379;59.744;18.206;2023-07-29T11:10:00;26.60;99.90
8684;DHT22;4379;59.744;18.206;2023-07-29T11:17:52;25.90;99.90
8684;DHT22;4379;59.744;18.206;2023-07-29T11:20:22;26.10;99.90
8684;DHT22;4379;59.744;18.206;2023-07-29T11:22:50;25.80;99.90
8684;DHT22;4379;59.744;18.206;2023-07-29T11:25:18;25.90;99.90
8684;DHT22;4379;59.744;18.206;2023-07-29T11:27:46;25.70;99.90
8684;DHT22;4379;59.744;18.206;2023-07-29T11:30:15;25.80;99.90
8684;DHT22;4379;59.744;18.206;2023-07-29T11:32:44;26.00;99.90
8684;DHT22;4379;59.744;18.206;2023-07-29T11:35:17;26.00;99.90
8684;DHT22;4379;59.744;18.206;2023-07-29T11:37:49;26.00;99.90
8684;DHT22;4379;59.744;18.206;2023-07-29T11:40:19;26.20;99.90
8684;DHT22;4379;59.744;18.206;2023-07-29T11:42:49;26.00;99.90
8684;DHT22;4379;59.744;18.206;2023-07-29T11:45:21;26.20;99.90
8684;DHT22;4379;59.744;18.206;2023-07-29T11:47:51;25.80;99.90
8684;DHT22;4379;59.744;18.206;2023-07-29T11:50:18;26.00;99.90
8684;DHT22;4379;59.744;18.206;2023-07-29T11:52:46;26.10;99.90
8684;DHT22;4379;59.744;18.206;2023-07-29T11:55:15;25.60;99.90
8684;DHT22;4379;59.744;18.206;2023-07-29T11:57:43;25.40;99.90
8684;DHT22;4379;59.744;18.206;2023-07-29T12:00:12;25.40;99.90
8684;DHT22;4379;59.744;18.206;2023-07-29T12:02:42;25.50;99.90
8684;DHT22;4379;59.744;18.206;2023-07-29T12:05:13;25.90;99.90
8684;DHT22;4379;59.744;18.206;2023-07-29T12:07:42;25.70;99.90
8684;DHT22;4379;59.744;18.206;2023-07-29T12:10:11;26.00;99.90
8684;DHT22;4379;59.744;18.206;2023-07-29T12:12:59;26.10;99.90
8684;DHT22;4379;59.744;18.206;2023-07-29T12:15:28;26.50;99.90
8684;DHT22;4379;59.744;18.206;2023-07-29T12:17:56;26.40;99.90
8684;DHT22;4379;59.744;18.206;2023-07-29T12:20:25;25.80;99.90
8684;DHT22;4379;59.744;18.206;2023-07-29T12:22:54;25.50;99.90
8684;DHT22;4379;59.744;18.206;2023-07-29T12:25:22;25.40;99.90
8684;DHT22;4379;59.744;18.206;2023-07-29T12:27:50;25.20;99.90
8684;DHT22;4379;59.744;18.206;2023-07-29T12:30:21;25.30;99.90
8684;DHT22;4379;59.744;18.206;2023-07-29T12:32:49;25.70;99.90
8684;DHT22;4379;59.744;18.206;2023-07-29T12:35:16;25.50;99.90
8684;DHT22;4379;59.744;18.206;2023-07-29T12:37:44;25.50;99.90
8684;DHT22;4379;59.744;18.206;2023-07-29T12:40:25;25.30;99.90
8684;DHT22;4379;59.744;18.206;2023-07-29T12:42:53;25.00;99.90
8684;DHT22;4379;59.744;18.206;2023-07-29T12:45:20;25.40;99.90
8684;DHT22;4379;59.744;18.206;2023-07-29T12:47:55;25.40;99.90
8684;DHT22;4379;59.744;18.206;2023-07-29T12:50:22;25.20;99.90
8684;DHT22;4379;59.744;18.206;2023-07-29T12:52:50;25.30;99.90
8684;DHT22;4379;59.744;18.206;2023-07-29T12:55:17;25.40;99.90
8684;DHT22;4379;59.744;18.206;2023-07-29T12:57:50;25.60;99.90
8684;DHT22;4379;59.744;18.206;2023-07-29T13:00:17;25.60;99.90
8684;DHT22;4379;59.744;18.206;2023-07-29T13:02:44;25.50;99.90
8684;DHT22;4379;59.744;18.206;2023-07-29T13:05:12;25.50;99.90
8684;DHT22;4379;59.744;18.206;2023-07-29T13:07:40;24.90;99.90
8684;DHT22;4379;59.744;18.206;2023-07-29T13:10:11;24.70;99.90
8684;DHT22;4379;59.744;18.206;2023-07-29T13:12:39;24.40;99.90
8684;DHT22;4379;59.744;18.206;2023-07-29T13:15:07;24.50;99.90
8684;DHT22;4379;59.744;18.206;2023-07-29T13:17:34;24.50;99.90
8684;DHT22;4379;59.744;18.206;2023-07-29T13:20:02;24.50;99.90
8684;DHT22;4379;59.744;18.206;2023-07-29T13:22:29;24.20;99.90
8684;DHT22;4379;59.744;18.206;2023-07-29T13:24:57;24.00;99.90
8684;DHT22;4379;59.744;18.206;2023-07-29T13:27:24;23.50;99.90
8684;DHT22;4379;59.744;18.206;2023-07-29T13:29:52;23.50;99.90
8684;DHT22;4379;59.744;18.206;2023-07-29T13:32:19;23.90;99.90
8684;DHT22;4379;59.744;18.206;2023-07-29T13:34:46;23.70;99.90
8684;DHT22;4379;59.744;18.206;2023-07-29T13:37:14;23.50;99.90
8684;DHT22;4379;59.744;18.206;2023-07-29T13:39:41;23.20;99.90
8684;DHT22;4379;59.744;18.206;2023-07-29T13:42:08;23.20;99.90
8684;DHT22;4379;59.744;18.206;2023-07-29T13:44:36;23.30;99.90
8684;DHT22;4379;59.744;18.206;2023-07-29T13:47:03;23.40;99.90
8684;DHT22;4379;59.744;18.206;2023-07-29T13:49:30;23.90;99.90
8684;DHT22;4379;59.744;18.206;2023-07-29T13:51:58;24.10;99.90
8684;DHT22;4379;59.744;18.206;2023-07-29T13:54:25;24.00;99.90
8684;DHT22;4379;59.744;18.206;2023-07-29T13:56:52;24.10;99.90
8684;DHT22;4379;59.744;18.206;2023-07-29T13:59:21;24.30;99.90
8684;DHT22;4379;59.744;18.206;2023-07-29T14:01:48;24.40;99.90
8684;DHT22;4379;59.744;18.206;2023-07-29T14:04:16;24.50;99.90
8684;DHT22;4379;59.744;18.206;2023-07-29T14:06:43;24.00;99.90
8684;DHT22;4379;59.744;18.206;2023-07-29T14:09:14;23.50;99.90
8684;DHT22;4379;59.744;18.206;2023-07-29T14:11:42;23.50;99.90
8684;DHT22;4379;59.744;18.206;2023-07-29T14:14:09;23.70;99.90
8684;DHT22;4379;59.744;18.206;2023-07-29T14:16:36;23.70;99.90
8684;DHT22;4379;59.744;18.206;2023-07-29T14:19:04;23.50;99.90
8684;DHT22;4379;59.744;18.206;2023-07-29T14:21:31;23.70;99.90
8684;DHT22;4379;59.744;18.206;2023-07-29T14:23:58;23.80;99.90
8684;DHT22;4379;59.744;18.206;2023-07-29T14:26:26;23.70;99.90
8684;DHT22;4379;59.744;18.206;2023-07-29T14:28:53;23.70;99.90
8684;DHT22;4379;59.744;18.206;2023-07-29T14:31:21;23.50;99.90
8684;DHT22;4379;59.744;18.206;2023-07-29T14:33:49;23.30;99.90
8684;DHT22;4379;59.744;18.206;2023-07-29T14:36:16;23.40;99.90
8684;DHT22;4379;59.744;18.206;2023-07-29T14:38:44;23.70;99.90
8684;DHT22;4379;59.744;18.206;2023-07-29T14:41:11;23.90;99.90
8684;DHT22;4379;59.744;18.206;2023-07-29T14:43:38;24.20;99.90
8684;DHT22;4379;59.744;18.206;2023-07-29T14:46:05;24.30;99.90
8684;DHT22;4379;59.744;18.206;2023-07-29T14:48:33;24.50;99.90
8684;DHT22;4379;59.744;18.206;2023-07-29T14:51:00;24.50;99.90
8684;DHT22;4379;59.744;18.206;2023-07-29T14:53:27;24.50;99.90
8684;DHT22;4379;59.744;18.206;2023-07-29T14:55:55;24.40;99.90
8684;DHT22;4379;59.744;18.206;2023-07-29T14:58:22;24.40;99.90
8684;DHT22;4379;59.744;18.206;2023-07-29T15:00:52;24.30;99.90
8684;DHT22;4379;59.744;18.206;2023-07-29T15:03:19;24.10;99.90
8684;DHT22;4379;59.744;18.206;2023-07-29T15:05:47;24.00;99.90
8684;DHT22;4379;59.744;18.206;2023-07-29T15:08:14;24.00;99.90
8684;DHT22;4379;59.744;18.206;2023-07-29T15:10:45;24.10;99.90
8684;DHT22;4379;59.744;18.206;2023-07-29T15:13:13;24.10;99.90
8684;DHT22;4379;59.744;18.206;2023-07-29T15:15:41;24.10;99.90
8684;DHT22;4379;59.744;18.206;2023-07-29T15:18:09;24.00;99.90
8684;DHT22;4379;59.744;18.206;2023-07-29T15:20:37;24.10;99.90
8684;DHT22;4379;59.744;18.206;2023-07-29T15:23:04;24.10;99.90
8684;DHT22;4379;59.744;18.206;2023-07-29T15:25:31;24.10;99.90
8684;DHT22;4379;59.744;18.206;2023-07-29T15:27:58;24.20;99.90
8684;DHT22;4379;59.744;18.206;2023-07-29T15:30:26;24.10;99.90
8684;DHT22;4379;59.744;18.206;2023-07-29T15:32:53;23.80;99.90
8684;DHT22;4379;59.744;18.206;2023-07-29T15:35:22;23.70;99.90
8684;DHT22;4379;59.744;18.206;2023-07-29T15:37:49;23.70;99.90
8684;DHT22;4379;59.744;18.206;2023-07-29T15:40:17;23.70;99.90
8684;DHT22;4379;59.744;18.206;2023-07-29T15:42:44;23.50;99.90
8684;DHT22;4379;59.744;18.206;2023-07-29T15:45:11;23.50;99.90
8684;DHT22;4379;59.744;18.206;2023-07-29T15:47:39;23.50;99.90
8684;DHT22;4379;59.744;18.206;2023-07-29T15:50:06;23.70;99.90
8684;DHT22;4379;59.744;18.206;2023-07-29T15:52:34;23.70;99.90
8684;DHT22;4379;59.744;18.206;2023-07-29T15:55:01;23.70;99.90
8684;DHT22;4379;59.744;18.206;2023-07-29T15:57:29;23.70;99.90
8684;DHT22;4379;59.744;18.206;2023-07-29T15:59:56;23.50;99.90
8684;DHT22;4379;59.744;18.206;2023-07-29T16:02:23;23.50;99.90
8684;DHT22;4379;59.744;18.206;2023-07-29T16:04:51;23.40;99.90
8684;DHT22;4379;59.744;18.206;2023-07-29T16:07:18;23.40;99.90
8684;DHT22;4379;59.744;18.206;2023-07-29T16:09:45;23.10;99.90